Time;durP1;ratioP1;P1;durP2;ratioP2;P2;SDS_P1;SDS_P2;PMS_P1;PMS_P2;Temp;Humidity;BMP_temperature;BMP_pressure;BME280_temperature;BME280_humidity;BME280_pressure;Samples;Min_cycle;Max_cycle;Signal;HPM_P1;HPM_P2
2022/09/14 00:01:50;;;;;;;4.57;2.40;;;18.30;99.90;;;19.05;100.00;97398.19;4962354;28;20484;-83
2022/09/14 00:04:20;;;;;;;7.37;2.80;;;18.30;99.90;;;19.07;100.00;97390.75;4960688;28;20870;-83
2022/09/14 00:06:51;;;;;;;12.73;2.53;;;18.30;99.90;;;19.06;100.00;97383.84;4959330;28;20489;-83
2022/09/14 00:09:23;;;;;;;12.13;2.73;;;18.30;99.90;;;19.05;100.00;97375.09;4961683;28;20481;-83
2022/09/14 00:11:52;;;;;;;5.20;2.60;;;18.20;99.90;;;19.05;100.00;97369.03;4969712;28;20456;-83
2022/09/14 00:14:21;;;;;;;3.00;2.40;;;18.30;99.90;;;19.06;100.00;97362.66;4962121;28;20523;-82
2022/09/14 00:16:51;;;;;;;8.60;2.17;;;18.30;99.90;;;19.07;100.00;97345.69;4960957;28;20869;-83
2022/09/14 00:19:23;;;;;;;16.00;3.40;;;18.30;99.90;;;19.08;100.00;97339.34;4959844;28;20584;-83
2022/09/14 00:21:55;;;;;;;3.60;2.03;;;18.30;99.90;;;19.06;100.00;97318.38;4961412;28;20461;-83
2022/09/14 00:24:26;;;;;;;8.80;2.47;;;18.30;99.90;;;19.08;100.00;97315.50;4962172;28;20449;-83
2022/09/14 00:26:55;;;;;;;4.00;2.43;;;18.30;99.90;;;19.07;100.00;97313.88;4959786;28;20472;-83
2022/09/14 00:29:23;;;;;;;4.90;2.90;;;18.20;99.90;;;19.05;100.00;97316.00;4961233;28;20478;-83
2022/09/14 00:31:52;;;;;;;5.03;4.00;;;18.20;99.90;;;19.03;100.00;97312.81;4965723;28;20480;-84
2022/09/14 00:34:21;;;;;;;6.20;2.73;;;18.30;99.90;;;19.03;100.00;97304.88;4967527;28;20959;-83
2022/09/14 00:36:52;;;;;;;4.83;2.30;;;18.20;99.90;;;19.02;100.00;97300.63;4964386;28;20461;-83
2022/09/14 00:39:24;;;;;;;6.00;2.03;;;18.30;99.90;;;19.02;100.00;97296.09;4959811;28;20499;-83
2022/09/14 00:41:53;;;;;;;3.63;2.43;;;18.20;99.90;;;19.02;100.00;97279.44;4960310;28;20548;-83
2022/09/14 00:45:07;;;;;;;14.40;2.43;;;18.20;99.90;;;19.01;100.00;97283.13;4960239;28;20460;-83
2022/09/14 00:47:36;;;;;;;4.97;2.80;;;18.10;99.90;;;19.01;100.00;97280.47;4959380;28;20560;-83
2022/09/14 00:50:07;;;;;;;4.37;2.40;;;18.30;99.90;;;18.99;100.00;97275.44;4962619;28;20554;-83
2022/09/14 00:52:43;;;;;;;9.13;2.43;;;18.30;99.90;;;18.99;100.00;97269.31;4958151;28;20532;-83
2022/09/14 00:55:16;;;;;;;5.30;2.80;;;18.20;99.90;;;18.99;100.00;97277.28;4960594;28;20879;-83
2022/09/14 00:57:49;;;;;;;3.57;2.30;;;18.20;99.90;;;18.95;100.00;97284.19;4961141;28;20450;-83
2022/09/14 01:00:24;;;;;;;3.70;2.13;;;18.20;99.90;;;18.92;100.00;97272.22;4961447;28;20507;-83
2022/09/14 01:02:53;;;;;;;4.63;2.67;;;18.20;99.90;;;18.93;100.00;97270.38;4960778;28;20449;-83
2022/09/14 01:05:34;;;;;;;4.03;2.73;;;18.20;99.90;;;18.91;100.00;97273.28;4961383;28;20535;-82
2022/09/14 01:08:37;;;;;;;8.43;2.70;;;18.20;99.90;;;18.91;100.00;97272.50;4961009;28;20449;-83
2022/09/14 01:11:28;;;;;;;17.73;3.07;;;18.10;99.90;;;18.90;100.00;97276.19;4960053;28;20451;-83
2022/09/14 01:14:14;;;;;;;8.17;2.70;;;18.10;99.90;;;18.91;100.00;97256.59;4964584;28;20543;-83
2022/09/14 01:16:54;;;;;;;9.50;3.23;;;18.10;99.90;;;18.91;100.00;97261.91;4959892;28;20463;-83
2022/09/14 01:19:33;;;;;;;16.77;2.47;;;18.10;99.90;;;18.91;100.00;97264.53;4961646;28;20498;-83
2022/09/14 01:22:18;;;;;;;4.83;2.70;;;18.10;99.90;;;18.90;100.00;97265.59;4960567;28;20460;-83
2022/09/14 01:24:55;;;;;;;9.60;2.70;;;18.20;99.90;;;18.88;100.00;97267.72;4961820;28;20473;-83
2022/09/14 01:27:34;;;;;;;5.03;2.50;;;18.20;99.90;;;18.88;100.00;97263.19;4965876;28;20443;-83
2022/09/14 01:30:10;;;;;;;3.87;2.50;;;18.10;99.90;;;18.88;100.00;97255.25;4963400;28;20484;-83
2022/09/14 01:32:48;;;;;;;6.73;3.17;;;18.10;99.90;;;18.88;100.00;97252.59;4964079;28;20456;-83
2022/09/14 01:35:26;;;;;;;11.60;3.03;;;18.10;99.90;;;18.87;100.00;97247.56;4967454;28;20492;-83
2022/09/14 01:38:02;;;;;;;7.67;2.80;;;18.20;99.90;;;18.85;100.00;97242.50;4963932;28;21059;-83
2022/09/14 01:40:37;;;;;;;6.13;2.90;;;18.10;99.90;;;18.86;100.00;97238.00;4963653;28;20482;-84
2022/09/14 01:43:12;;;;;;;10.57;2.60;;;18.10;99.90;;;18.86;100.00;97238.81;4964180;28;20559;-83
2022/09/14 01:45:47;;;;;;;8.57;2.70;;;18.10;99.90;;;18.86;100.00;97238.81;4964687;28;20484;-83
2022/09/14 01:48:22;;;;;;;7.30;3.37;;;18.00;99.90;;;18.85;100.00;97231.13;4964388;28;20547;-83
2022/09/14 01:50:57;;;;;;;6.57;2.70;;;18.00;99.90;;;18.83;100.00;97236.69;4969330;28;20534;-83
2022/09/14 01:53:33;;;;;;;11.77;3.40;;;18.10;99.90;;;18.83;100.00;97249.13;4967156;28;20480;-83
2022/09/14 01:56:14;;;;;;;4.40;2.90;;;18.00;99.90;;;18.81;100.00;97252.03;4967798;28;20465;-83
2022/09/14 01:58:50;;;;;;;4.33;3.00;;;18.00;99.90;;;18.80;100.00;97244.34;4967141;28;20524;-83
2022/09/14 02:01:28;;;;;;;4.60;3.00;;;18.00;99.90;;;18.81;100.00;97253.91;4970754;28;20480;-83
2022/09/14 02:04:02;;;;;;;8.20;2.80;;;18.00;99.90;;;18.81;100.00;97251.25;4970694;28;21217;-83
2022/09/14 02:06:37;;;;;;;6.63;3.07;;;18.00;99.90;;;18.80;100.00;97261.06;4966322;28;20471;-83
2022/09/14 02:09:10;;;;;;;5.43;3.17;;;17.90;99.90;;;18.79;100.00;97274.53;4968988;28;20569;-83
2022/09/14 02:11:39;;;;;;;7.50;3.40;;;18.00;99.90;;;18.78;100.00;97275.63;4971895;28;20462;-83
2022/09/14 02:14:10;;;;;;;10.17;3.90;;;18.00;99.90;;;18.74;100.00;97295.72;4965679;28;21097;-83
2022/09/14 02:16:42;;;;;;;7.47;3.70;;;18.00;99.90;;;18.70;100.00;97294.66;4963007;28;20446;-83
2022/09/14 02:19:11;;;;;;;7.63;3.27;;;18.00;99.90;;;18.73;100.00;97294.13;4964799;28;20608;-84
2022/09/14 02:21:40;;;;;;;7.07;3.50;;;18.10;99.90;;;18.73;100.00;97286.19;4964517;28;20478;-83
2022/09/14 02:24:11;;;;;;;10.00;3.80;;;18.10;99.90;;;18.73;100.00;97275.59;4961999;28;20885;-83
2022/09/14 02:26:41;;;;;;;5.63;3.30;;;18.00;99.90;;;18.73;100.00;97268.44;4962050;28;20459;-84
2022/09/14 02:29:11;;;;;;;11.20;4.07;;;18.00;99.90;;;18.74;100.00;97258.66;4963054;28;20484;-84
2022/09/14 02:31:57;;;;;;;7.83;3.50;;;18.00;99.90;;;18.75;100.00;97257.56;4962492;28;20453;-83
2022/09/14 02:34:38;;;;;;;6.10;3.80;;;17.90;99.90;;;18.74;100.00;97251.50;4963056;28;20505;-84
2022/09/14 02:37:15;;;;;;;8.47;3.97;;;17.90;99.90;;;18.72;100.00;97250.13;4961570;28;20504;-83
2022/09/14 02:39:55;;;;;;;6.20;3.63;;;18.00;99.90;;;18.69;100.00;97250.66;4963368;28;20491;-83
2022/09/14 02:42:35;;;;;;;7.07;4.13;;;17.90;99.90;;;18.68;100.00;97254.34;4963472;28;21027;-83
2022/09/14 02:45:20;;;;;;;8.17;4.10;;;18.00;99.90;;;18.68;100.00;97249.88;4963739;28;20458;-83
2022/09/14 02:48:02;;;;;;;5.97;3.60;;;18.00;99.90;;;18.69;100.00;97238.22;4963529;28;20931;-83
2022/09/14 02:50:40;;;;;;;4.70;3.20;;;17.90;99.90;;;18.70;100.00;97239.81;4966992;28;20457;-83
2022/09/14 02:53:19;;;;;;;6.37;3.77;;;17.90;99.90;;;18.70;100.00;97229.22;4966075;28;20527;-84
2022/09/14 02:55:57;;;;;;;6.20;3.70;;;17.90;99.90;;;18.71;100.00;97219.44;4967738;28;21084;-83
2022/09/14 02:58:34;;;;;;;12.23;3.90;;;17.90;99.90;;;18.69;100.00;97232.13;4971430;28;20552;-84
2022/09/14 03:01:04;;;;;;;6.60;3.90;;;17.90;99.90;;;18.68;100.00;97222.56;4963331;28;20489;-84
2022/09/14 03:03:35;;;;;;;5.83;3.30;;;17.90;99.90;;;18.67;100.00;97213.06;4962512;28;20927;-84
2022/09/14 03:06:05;;;;;;;8.30;3.60;;;18.00;99.90;;;18.67;100.00;97207.75;4963632;28;20868;-84
2022/09/14 03:08:35;;;;;;;7.63;3.67;;;17.90;99.90;;;18.67;100.00;97197.16;4961464;28;20490;-83
2022/09/14 03:11:05;;;;;;;3.70;2.73;;;17.90;99.90;;;18.68;100.00;97193.44;4963383;28;21076;-84
2022/09/14 03:13:34;;;;;;;10.90;4.43;;;17.80;99.90;;;18.66;100.00;97190.25;4966398;28;20473;-83
2022/09/14 03:16:08;;;;;;;12.70;3.77;;;17.80;99.90;;;18.65;100.00;97199.25;4973857;28;20532;-84
2022/09/14 03:18:38;;;;;;;18.07;5.33;;;17.80;99.90;;;18.64;100.00;97197.69;4974063;28;20464;-84
2022/09/14 03:21:11;;;;;;;9.03;4.27;;;17.80;99.90;;;18.63;100.00;97202.19;4970561;28;20524;-83
2022/09/14 03:23:42;;;;;;;6.20;4.10;;;17.80;99.90;;;18.62;100.00;97215.66;4975022;28;20464;-84
2022/09/14 03:26:13;;;;;;;5.57;3.70;;;17.90;99.90;;;18.58;100.00;97231.28;4972368;28;20657;-84
2022/09/14 03:28:42;;;;;;;4.13;3.37;;;17.90;99.90;;;18.55;100.00;97222.00;4969513;28;20912;-83
2022/09/14 03:31:13;;;;;;;6.30;3.07;;;18.00;99.90;;;18.55;100.00;97222.00;4974756;28;20461;-84
2022/09/14 03:33:42;;;;;;;11.37;3.80;;;17.90;99.90;;;18.56;100.00;97218.31;4972983;28;20492;-83
2022/09/14 03:36:15;;;;;;;8.83;3.23;;;17.80;99.90;;;18.55;100.00;97216.72;4964268;28;20499;-84
2022/09/14 03:38:46;;;;;;;7.13;3.27;;;17.80;99.90;;;18.55;100.00;97206.13;4967015;28;20618;-83
2022/09/14 03:41:16;;;;;;;9.73;3.40;;;17.90;99.90;;;18.55;100.00;97211.41;4967400;28;20508;-83
2022/09/14 03:43:45;;;;;;;4.40;3.20;;;17.80;99.90;;;18.54;100.00;97209.81;4967624;28;21162;-83
2022/09/14 03:46:19;;;;;;;9.50;3.33;;;17.80;99.90;;;18.53;100.00;97194.97;4970175;28;20543;-83
2022/09/14 03:48:49;;;;;;;12.07;3.40;;;17.80;99.90;;;18.53;100.00;97189.66;4969395;28;20511;-83
2022/09/14 03:51:19;;;;;;;16.83;3.83;;;17.70;99.90;;;18.54;100.00;97193.91;4969906;28;20985;-83
2022/09/14 03:53:48;;;;;;;7.23;3.80;;;17.70;99.90;;;18.55;100.00;97192.06;4970069;28;20468;-83
2022/09/14 03:56:22;;;;;;;6.20;3.27;;;17.70;99.90;;;18.54;100.00;97198.41;4966711;28;21087;-85
2022/09/14 03:58:52;;;;;;;8.53;3.93;;;17.70;99.90;;;18.53;100.00;97196.84;4962497;28;20440;-84
2022/09/14 04:01:23;;;;;;;12.37;3.60;;;17.80;99.90;;;18.51;100.00;97199.75;4961983;28;20503;-83
2022/09/14 04:03:53;;;;;;;7.50;3.60;;;17.70;99.90;;;18.49;100.00;97195.72;4962059;28;20445;-83
2022/09/14 04:06:21;;;;;;;5.50;3.40;;;17.80;99.90;;;18.50;100.00;97181.44;4962347;28;20540;-84
2022/09/14 04:08:50;;;;;;;7.17;3.33;;;17.80;99.90;;;18.48;100.00;97184.34;4960660;28;20464;-84
2022/09/14 04:11:24;;;;;;;9.17;4.20;;;17.70;99.90;;;18.49;100.00;97188.59;4961572;28;20532;-85
2022/09/14 04:13:53;;;;;;;5.70;2.97;;;17.70;99.90;;;18.50;100.00;97192.84;4960883;28;20456;-84
2022/09/14 04:16:23;;;;;;;7.33;3.60;;;17.70;99.90;;;18.50;100.00;97184.88;4960593;28;20556;-84
2022/09/14 04:18:52;;;;;;;6.40;3.77;;;17.70;99.90;;;18.49;100.00;97185.94;4960981;28;20488;-84
2022/09/14 04:21:24;;;;;;;8.67;3.80;;;17.70;99.90;;;18.51;100.00;97186.50;4960661;28;20503;-84
2022/09/14 04:23:55;;;;;;;17.37;3.50;;;17.70;99.90;;;18.51;100.00;97186.50;4960628;28;20526;-84
2022/09/14 04:26:46;;;;;;;4.27;3.53;;;17.70;99.90;;;18.50;100.00;97179.59;4963641;28;20449;-84
2022/09/14 04:29:15;;;;;;;12.00;3.30;;;17.70;99.90;;;18.51;100.00;97183.03;4962037;28;20488;-84
2022/09/14 04:31:45;;;;;;;5.37;3.17;;;17.70;99.90;;;18.51;100.00;97173.25;4961207;28;20466;-84
2022/09/14 04:34:14;;;;;;;3.20;2.63;;;17.70;99.90;;;18.51;100.00;97181.19;4960601;28;20472;-85
2022/09/14 04:36:42;;;;;;;6.30;3.40;;;17.70;99.90;;;18.52;100.00;97187.28;4967162;28;20546;-84
2022/09/14 04:39:14;;;;;;;3.80;3.00;;;17.70;99.90;;;18.51;100.00;97188.34;4967853;28;20497;-84
2022/09/14 04:41:42;;;;;;;10.80;3.77;;;17.70;99.90;;;18.52;100.00;97185.44;4967490;28;21114;-84
2022/09/14 04:44:12;;;;;;;6.77;3.40;;;17.70;99.90;;;18.52;100.00;97188.09;4964246;28;20803;-84
2022/09/14 04:46:41;;;;;;;5.07;3.30;;;17.70;99.90;;;18.52;100.00;97188.09;4970591;28;20466;-84
2022/09/14 04:49:17;;;;;;;5.60;3.20;;;17.70;99.90;;;18.52;100.00;97180.16;4968648;28;20448;-84
2022/09/14 04:51:47;;;;;;;5.37;2.87;;;17.70;99.90;;;18.53;100.00;97176.44;4968064;28;20448;-84
2022/09/14 04:54:18;;;;;;;7.37;3.87;;;17.60;99.90;;;18.53;100.00;97160.53;4968939;28;20468;-84
2022/09/14 04:56:46;;;;;;;5.60;3.60;;;17.70;99.90;;;18.55;100.00;97150.50;4966182;28;20504;-84
2022/09/14 04:59:15;;;;;;;3.50;3.20;;;17.70;99.90;;;18.54;100.00;97156.84;4963103;28;20878;-83
2022/09/14 05:01:46;;;;;;;6.97;3.80;;;17.70;99.90;;;18.53;100.00;97160.53;4963825;28;20583;-85
2022/09/14 05:04:17;;;;;;;9.53;3.60;;;17.70;99.90;;;18.52;100.00;97158.16;4965589;28;20492;-84
2022/09/14 05:06:46;;;;;;;5.87;3.67;;;17.70;99.90;;;18.49;100.00;97170.06;4964065;28;20528;-84
2022/09/14 05:09:18;;;;;;;5.80;3.80;;;17.70;99.90;;;18.50;100.00;97169.00;4965193;28;20551;-84
2022/09/14 05:11:48;;;;;;;4.40;3.07;;;17.70;99.90;;;18.50;100.00;97166.34;4966054;28;20461;-84
2022/09/14 05:14:18;;;;;;;4.73;3.13;;;17.70;99.90;;;18.48;100.00;97179.03;4965420;28;20465;-84
2022/09/14 05:16:47;;;;;;;5.50;3.43;;;17.70;99.90;;;18.46;100.00;97170.56;4964173;28;20519;-84
2022/09/14 05:19:18;;;;;;;5.73;3.77;;;17.70;99.90;;;18.48;100.00;97168.44;4963494;28;20453;-85
2022/09/14 05:21:48;;;;;;;6.53;4.50;;;17.70;99.90;;;18.49;100.00;97164.75;4964413;28;21272;-84
2022/09/14 05:24:19;;;;;;;8.47;3.60;;;17.70;99.90;;;18.50;100.00;97165.56;4964694;28;20990;-84
2022/09/14 05:26:52;;;;;;;5.17;3.13;;;17.70;99.90;;;18.50;100.00;97165.56;4964586;28;20455;-84
2022/09/14 05:29:28;;;;;;;16.27;3.60;;;17.70;99.90;;;18.50;100.00;97166.34;4963960;28;20466;-84
2022/09/14 05:31:56;;;;;;;11.70;3.20;;;17.70;99.90;;;18.51;100.00;97172.44;4964047;28;20536;-84
2022/09/14 05:34:26;;;;;;;4.57;2.97;;;17.70;99.90;;;18.50;100.00;97176.94;4970924;28;20483;-84
2022/09/14 05:36:55;;;;;;;5.47;3.60;;;17.70;99.90;;;18.49;100.00;97175.34;4975791;28;20535;-85
2022/09/14 05:39:24;;;;;;;4.83;3.40;;;17.70;99.90;;;18.50;100.00;97169.00;4972712;28;20555;-85
2022/09/14 05:41:54;;;;;;;6.87;3.70;;;17.70;99.90;;;18.50;100.00;97155.75;4974923;28;20489;-84
2022/09/14 05:44:22;;;;;;;3.70;3.27;;;17.70;99.90;;;18.49;100.00;97159.47;4972491;28;20898;-84
2022/09/14 05:46:52;;;;;;;4.87;3.33;;;17.70;99.90;;;18.50;100.00;97157.63;4973011;28;20464;-84
2022/09/14 05:49:24;;;;;;;9.00;4.10;;;17.70;99.90;;;18.51;100.00;97148.63;4974474;28;20457;-84
2022/09/14 05:51:53;;;;;;;5.33;3.80;;;17.70;99.90;;;18.51;100.00;97141.47;4971470;28;20983;-84
2022/09/14 05:54:22;;;;;;;6.03;4.00;;;17.70;99.90;;;18.51;100.00;97144.13;4973936;28;20468;-84
2022/09/14 05:56:50;;;;;;;5.17;3.30;;;17.80;99.90;;;18.53;100.00;97134.06;4974143;28;20467;-84
2022/09/14 05:59:19;;;;;;;6.17;3.93;;;17.70;99.90;;;18.53;100.00;97139.34;4970762;28;20452;-84
2022/09/14 06:01:49;;;;;;;6.00;3.60;;;17.70;99.90;;;18.53;100.00;97142.00;4965864;28;20591;-84
2022/09/14 06:04:18;;;;;;;6.97;4.23;;;17.70;99.90;;;18.55;100.00;97139.91;4964496;28;20451;-85
2022/09/14 06:06:46;;;;;;;9.67;3.90;;;17.70;99.90;;;18.57;100.00;97147.56;4964584;28;20575;-84
2022/09/14 06:09:36;;;;;;;5.80;3.60;;;17.80;99.90;;;18.56;100.00;97149.47;4963562;28;20947;-84
2022/09/14 06:12:05;;;;;;;4.60;3.70;;;17.70;99.90;;;18.57;100.00;97156.31;4964956;28;20463;-84
2022/09/14 06:14:35;;;;;;;5.17;3.60;;;17.80;99.90;;;18.58;100.00;97163.22;4964563;28;20825;-85
2022/09/14 06:17:05;;;;;;;11.50;7.87;;;17.80;99.90;;;18.59;100.00;97164.81;4963606;28;20453;-84
2022/09/14 06:19:34;;;;;;;7.77;5.37;;;17.80;99.90;;;18.60;100.00;97162.97;4961090;28;20501;-84
2022/09/14 06:22:03;;;;;;;12.23;3.50;;;17.80;99.90;;;18.63;100.00;97166.94;4960471;28;20500;-84
2022/09/14 06:24:31;;;;;;;4.73;3.13;;;17.90;99.90;;;18.66;100.00;97164.56;4960738;28;20753;-85
2022/09/14 06:27:01;;;;;;;5.07;2.97;;;17.80;99.90;;;18.67;100.00;97158.22;4961949;28;20457;-83
2022/09/14 06:29:30;;;;;;;3.00;2.70;;;17.90;99.90;;;18.69;100.00;97163.25;4963226;28;20487;-84
2022/09/14 06:31:59;;;;;;;2.87;2.57;;;17.90;99.90;;;18.70;100.00;97164.84;4962796;28;20470;-83
2022/09/14 06:34:29;;;;;;;23.37;11.87;;;17.90;99.90;;;18.71;100.00;97159.28;4961929;28;20557;-83
2022/09/14 06:36:58;;;;;;;5.65;4.03;;;17.90;99.90;;;18.74;100.00;97156.13;4959918;28;20484;-85
2022/09/14 06:39:27;;;;;;;3.30;3.00;;;18.00;99.90;;;18.77;100.00;97152.97;4960859;28;20206;-85
2022/09/14 06:41:56;;;;;;;5.73;2.83;;;18.00;99.90;;;18.78;100.00;97157.19;4959569;28;20492;-84
2022/09/14 06:44:27;;;;;;;4.90;2.50;;;18.00;99.90;;;18.80;100.00;97151.63;4960684;28;20472;-84
2022/09/14 06:46:56;;;;;;;2.80;2.60;;;18.00;99.90;;;18.83;100.00;97137.88;4959987;28;20492;-85
2022/09/14 06:49:25;;;;;;;4.57;3.50;;;18.00;99.90;;;18.84;100.00;97134.16;4960563;28;20499;-84
2022/09/14 06:51:56;;;;;;;6.83;2.77;;;18.00;99.90;;;18.88;100.00;97132.59;4960960;28;20515;-84
2022/09/14 06:54:27;;;;;;;3.20;2.90;;;18.00;99.90;;;18.89;100.00;97134.16;4962919;28;20469;-84
2022/09/14 06:56:57;;;;;;;5.73;3.37;;;18.00;99.90;;;18.91;100.00;97140.81;4961771;28;20505;-85
2022/09/14 06:59:30;;;;;;;4.37;2.93;;;18.10;99.90;;;18.93;100.00;97135.22;4964004;28;20909;-84
2022/09/14 07:01:59;;;;;;;4.03;3.00;;;18.10;99.90;;;18.95;100.00;97131.25;4960709;28;20530;-84
2022/09/14 07:04:28;;;;;;;7.70;3.63;;;18.20;99.90;;;18.97;100.00;97131.00;4962418;28;20477;-82
2022/09/14 07:06:58;;;;;;;6.47;4.27;;;18.20;99.90;;;18.99;100.00;97142.13;4959848;28;20458;-84
2022/09/14 07:09:27;;;;;;;3.57;2.30;;;18.20;99.90;;;18.99;100.00;97144.78;4961903;28;20547;-83
2022/09/14 07:11:56;;;;;;;5.90;3.20;;;18.30;99.90;;;18.95;100.00;97147.16;4959678;28;20464;-84
2022/09/14 07:14:28;;;;;;;7.30;4.40;;;18.30;99.90;;;18.94;100.00;97142.94;4959412;28;20468;-84
2022/09/14 07:17:01;;;;;;;4.67;2.90;;;18.20;99.90;;;18.88;100.00;97148.47;4962124;28;20467;-84
2022/09/14 07:19:30;;;;;;;11.53;3.73;;;18.10;99.90;;;18.91;100.00;97150.59;4961063;28;20469;-83
2022/09/14 07:22:03;;;;;;;15.17;3.63;;;18.10;99.90;;;18.90;100.00;97149.81;4957093;28;20964;-84
2022/09/14 07:24:33;;;;;;;8.70;4.60;;;18.10;99.90;;;18.96;100.00;97147.94;4962572;28;21004;-84
2022/09/14 07:27:05;;;;;;;9.67;4.47;;;18.30;99.90;;;19.01;100.00;97143.47;4961252;28;20476;-84
2022/09/14 07:29:35;;;;;;;8.40;4.43;;;18.30;99.90;;;19.02;100.00;97133.69;4964372;28;20515;-83
2022/09/14 07:32:06;;;;;;;6.90;4.00;;;18.30;99.90;;;19.03;100.00;97143.19;4961078;28;20478;-84
2022/09/14 07:34:34;;;;;;;7.93;4.90;;;18.30;99.90;;;19.06;100.00;97148.78;4961121;28;20472;-85
2022/09/14 07:37:03;;;;;;;9.90;5.07;;;18.40;99.90;;;19.10;100.00;97167.59;4960829;28;20471;-84
2022/09/14 07:39:32;;;;;;;9.50;4.60;;;18.50;99.90;;;19.10;100.00;97170.25;4960326;28;20560;-84
2022/09/14 07:42:00;;;;;;;9.50;5.10;;;18.40;99.90;;;19.10;100.00;97171.03;4960312;28;20488;-84
2022/09/14 07:44:29;;;;;;;8.90;5.03;;;18.50;99.90;;;19.10;100.00;97159.63;4958773;28;20472;-84
2022/09/14 07:46:58;;;;;;;12.77;5.10;;;18.40;99.90;;;19.13;100.00;97159.09;4960337;28;20485;-85
2022/09/14 07:49:30;;;;;;;13.97;5.63;;;18.50;99.90;;;19.12;100.00;97165.50;4959246;28;21285;-84
2022/09/14 07:51:59;;;;;;;11.33;5.10;;;18.50;99.90;;;19.11;100.00;97155.94;4962044;28;20476;-83
2022/09/14 07:54:27;;;;;;;36.83;23.23;;;18.50;99.90;;;19.16;100.00;97165.75;4961346;28;20571;-83
2022/09/14 07:56:58;;;;;;;14.70;6.47;;;18.60;99.90;;;19.19;100.00;97168.69;4960499;28;20504;-83
2022/09/14 07:59:29;;;;;;;12.60;5.63;;;18.60;99.90;;;19.14;100.00;97167.88;4959129;28;22413;-84
2022/09/14 08:02:06;;;;;;;12.63;5.20;;;18.40;99.90;;;19.25;100.00;97172.13;4961084;28;20559;-84
2022/09/14 08:04:41;;;;;;;13.47;6.20;;;18.50;99.90;;;19.30;100.00;97164.19;4960690;28;20477;-84
2022/09/14 08:07:11;;;;;;;16.27;6.87;;;18.60;99.90;;;19.28;100.00;97167.09;4958720;28;20488;-84
2022/09/14 08:09:40;;;;;;;11.60;5.70;;;18.50;99.90;;;19.20;100.00;97166.81;4959268;28;20471;-84
2022/09/14 08:12:09;;;;;;;18.30;7.00;;;18.40;99.90;;;19.32;100.00;97177.97;4960568;28;21403;-84
2022/09/14 08:14:38;;;;;;;13.23;7.23;;;18.60;99.90;;;19.36;100.00;97174.53;4960841;28;20587;-84
2022/09/14 08:17:06;;;;;;;14.00;6.90;;;18.70;99.90;;;19.38;100.00;97172.41;4959950;28;20467;-84
2022/09/14 08:19:36;;;;;;;14.93;7.30;;;18.70;99.90;;;19.41;100.00;97168.44;4962116;28;20860;-83
2022/09/14 08:22:07;;;;;;;13.23;6.80;;;18.70;99.90;;;19.46;100.00;97173.75;4958101;28;20493;-84
2022/09/14 08:24:37;;;;;;;16.73;7.17;;;18.80;99.90;;;19.43;100.00;97179.59;4958517;28;20451;-84
2022/09/14 08:27:06;;;;;;;16.73;8.20;;;18.70;99.90;;;19.39;100.00;97184.59;4961480;28;20493;-90
2022/09/14 08:29:34;;;;;;;18.17;7.40;;;18.60;99.90;;;19.41;100.00;97177.19;4967235;28;20542;-89
2022/09/14 08:32:03;;;;;;;16.10;7.73;;;18.70;99.90;;;19.47;100.00;97178.78;4969721;28;20457;-90
2022/09/14 08:34:33;;;;;;;18.53;7.53;;;18.70;99.90;;;19.52;100.00;97162.88;4966313;28;20472;-90
2022/09/14 08:37:01;;;;;;;22.93;8.83;;;18.80;99.90;;;19.61;100.00;97149.09;4968796;28;20896;-89
2022/09/14 08:39:32;;;;;;;14.97;7.43;;;18.90;99.90;;;19.67;100.00;97161.28;4971633;28;20971;-89
2022/09/14 08:42:02;;;;;;;14.23;7.93;;;18.90;99.90;;;19.68;100.00;97174.28;4970717;28;20492;-91
2022/09/14 08:44:40;;;;;;;197.67;115.93;;;18.90;99.90;;;19.76;100.00;97175.59;4966390;28;20475;-91
2022/09/14 08:47:13;;;;;;;29.20;14.07;;;19.00;99.90;;;19.83;100.00;97170.81;4971244;28;20477;-91
2022/09/14 08:49:50;;;;;;;18.03;9.27;;;19.10;99.90;;;19.88;100.00;97166.31;4965442;28;20521;-91
2022/09/14 08:52:28;;;;;;;30.93;15.00;;;19.20;99.90;;;19.92;100.00;97167.34;4975258;28;20567;-91
2022/09/14 08:55:04;;;;;;;35.50;20.30;;;19.20;99.90;;;19.94;100.00;97159.13;4973280;28;21051;-91
2022/09/14 08:57:44;;;;;;;31.63;17.80;;;19.30;99.90;;;19.94;100.00;97161.78;4962808;28;20489;-83
2022/09/14 09:00:18;;;;;;;58.50;36.30;;;19.30;99.90;;;19.93;100.00;97161.00;4968027;28;20465;-89
2022/09/14 09:03:32;;;;;;;56.77;30.67;;;19.20;99.90;;;19.99;100.00;97164.44;4968044;28;20493;-89
2022/09/14 09:06:13;;;;;;;59.13;32.00;;;19.20;99.90;;;19.97;100.00;97179.81;4963466;28;20518;-89
2022/09/14 09:09:01;;;;;;;39.03;18.33;;;19.20;99.90;;;19.87;100.00;97188.59;4978180;28;20444;-89
2022/09/14 09:11:39;;;;;;;28.80;13.53;;;19.10;99.90;;;19.87;100.00;97191.25;4974635;28;20472;-90
2022/09/14 09:14:19;;;;;;;26.20;12.80;;;19.10;99.90;;;19.91;100.00;97197.63;4978052;28;20488;-90
2022/09/14 09:16:53;;;;;;;26.13;11.93;;;19.10;99.90;;;19.97;100.00;97206.38;4977134;28;20448;-90
2022/09/14 09:19:44;;;;;;;29.47;13.07;;;19.20;99.90;;;20.04;100.00;97199.72;4985409;28;20467;-90
2022/09/14 09:22:21;;;;;;;76.47;20.47;;;19.30;99.90;;;20.09;100.00;97193.63;4986049;28;20449;-89
2022/09/14 09:24:55;;;;;;;27.30;10.07;;;19.40;99.90;;;20.12;100.00;97195.75;4984104;28;20460;-90
2022/09/14 09:27:26;;;;;;;30.10;9.37;;;19.60;99.90;;;20.15;100.00;97191.75;4981029;28;20468;-89
2022/09/14 09:29:55;;;;;;;22.87;11.33;;;19.50;99.90;;;20.20;100.00;97181.88;4967598;28;20481;-89
2022/09/14 09:32:25;;;;;;;23.13;8.97;;;19.50;99.90;;;20.26;100.00;97188.81;4979506;28;20966;-88
2022/09/14 09:34:54;;;;;;;36.40;12.07;;;19.60;99.90;;;20.30;100.00;97183.78;4983472;28;20488;-89
2022/09/14 09:37:24;;;;;;;24.90;10.97;;;19.70;99.90;;;20.31;100.00;97180.03;4980634;28;20508;-90
2022/09/14 09:39:53;;;;;;;23.52;9.95;;;19.70;99.90;;;20.34;100.00;97179.53;4978994;28;20842;-90
2022/09/14 09:42:27;;;;;;;18.70;9.37;;;19.70;99.90;;;20.34;100.00;97172.31;4977819;28;20213;-89
2022/09/14 09:45:01;;;;;;;25.73;9.33;;;19.70;99.90;;;20.36;100.00;97172.06;4988968;28;20450;-89
2022/09/14 09:47:37;;;;;;;21.83;10.20;;;19.70;99.90;;;20.30;100.00;97166.00;4982056;28;20464;-90
2022/09/14 09:50:20;;;;;;;31.00;10.97;;;19.80;99.90;;;20.26;100.00;97158.78;4984866;28;20473;-90
2022/09/14 09:52:53;;;;;;;24.40;11.20;;;19.60;99.90;;;20.24;100.00;97135.16;4981771;28;20535;-89
2022/09/14 09:55:26;;;;;;;27.27;10.87;;;19.50;99.90;;;20.20;100.00;97130.69;4991320;28;20464;-89
2022/09/14 09:57:56;;;;;;;20.80;10.17;;;19.50;99.90;;;20.25;100.00;97139.41;4983806;28;20468;-89
2022/09/14 10:00:28;;;;;;;24.97;11.60;;;19.60;99.90;;;20.28;100.00;97138.91;4987579;28;20506;-88
2022/09/14 10:03:00;;;;;;;22.77;12.23;;;19.70;99.90;;;20.35;100.00;97123.47;4990892;28;21009;-90
2022/09/14 10:05:31;;;;;;;25.63;11.33;;;19.70;99.90;;;20.42;100.00;97125.81;4992501;28;20467;-90
2022/09/14 10:08:03;;;;;;;24.27;12.13;;;19.80;99.90;;;20.49;100.00;97119.16;4988627;28;20504;-89
2022/09/14 10:10:43;;;;;;;24.13;11.60;;;19.90;99.90;;;20.50;100.00;97110.13;4976155;28;20453;-89
2022/09/14 10:13:28;;;;;;;24.20;11.47;;;19.90;99.90;;;20.55;100.00;97110.09;4990968;28;20452;-89
2022/09/14 10:16:08;;;;;;;22.37;11.37;;;19.90;99.90;;;20.54;100.00;97095.22;4983934;28;20462;-89
2022/09/14 10:18:45;;;;;;;31.17;12.07;;;19.90;99.90;;;20.61;100.00;97100.25;4989238;28;20449;-90
2022/09/14 10:21:18;;;;;;;20.30;10.10;;;19.90;99.90;;;20.69;100.00;97090.91;4987696;28;20447;-90
2022/09/14 10:23:47;;;;;;;20.17;10.73;;;20.10;99.90;;;20.74;100.00;97089.00;4981487;28;20569;-89
2022/09/14 10:26:27;;;;;;;20.17;11.07;;;20.20;99.90;;;20.82;100.00;97083.13;4984889;28;20449;-89
2022/09/14 10:29:29;;;;;;;28.13;11.63;;;20.20;99.90;;;20.90;100.00;97092.34;4978187;28;20470;-90
2022/09/14 10:32:09;;;;;;;25.40;11.90;;;20.30;99.90;;;20.97;100.00;97093.63;4983949;28;20221;-90